Time;durP1;ratioP1;P1;durP2;ratioP2;P2;SDS_P1;SDS_P2;PMS_P1;PMS_P2;Temp;Humidity;BMP_temperature;BMP_pressure;BME280_temperature;BME280_humidity;BME280_pressure;Samples;Min_cycle;Max_cycle;Signal;HPM_P1;HPM_P2
2023/06/17 00:01:12;;;;;;;3.28;2.58;;;;;;;15.20;100.00;90281.41;5053337;28;20071;-68
2023/06/17 00:03:38;;;;;;;1.45;1.35;;;;;;;15.34;100.00;90282.84;5052878;28;20552;-67
2023/06/17 00:06:03;;;;;;;1.30;1.25;;;;;;;15.24;100.00;90276.91;5052547;28;20025;-68
2023/06/17 00:08:28;;;;;;;1.65;1.55;;;;;;;15.14;100.00;90274.78;5052766;28;20029;-67
2023/06/17 00:10:54;;;;;;;1.88;1.77;;;;;;;15.06;100.00;90281.13;5052963;28;20035;-67
2023/06/17 00:13:19;;;;;;;1.15;1.15;;;;;;;15.06;100.00;90281.13;5052472;28;20516;-67
2023/06/17 00:15:56;;;;;;;1.77;1.67;;;;;;;15.09;100.00;90282.31;5052908;28;20029;-67
2023/06/17 00:18:26;;;;;;;1.67;1.25;;;;;;;15.06;100.00;90283.03;5052822;28;20028;-67
2023/06/17 00:20:52;;;;;;;4.90;2.45;;;;;;;14.97;100.00;90280.53;5052434;28;20017;-67
2023/06/17 00:23:20;;;;;;;2.55;2.42;;;;;;;14.97;100.00;90275.97;5052707;28;20041;-66
2023/06/17 00:25:46;;;;;;;3.30;2.92;;;;;;;14.89;100.00;90274.28;5052721;28;20021;-67
2023/06/17 00:28:11;;;;;;;1.60;1.50;;;;;;;14.94;100.00;90275.88;5052649;28;20483;-67
2023/06/17 00:30:36;;;;;;;3.05;2.53;;;;;;;14.97;100.00;90278.63;5052487;28;20041;-67
2023/06/17 00:33:02;;;;;;;2.38;2.17;;;;;;;15.02;100.00;90272.25;5052510;28;20580;-67
2023/06/17 00:35:28;;;;;;;2.75;2.55;;;;;;;15.08;100.00;90268.16;5052750;28;20032;-67
2023/06/17 00:37:53;;;;;;;1.83;1.73;;;;;;;15.07;100.00;90263.16;5052424;28;20518;-67
2023/06/17 00:40:19;;;;;;;1.92;1.83;;;;;;;15.02;100.00;90269.56;5052186;28;20494;-68
2023/06/17 00:42:44;;;;;;;2.65;1.95;;;;;;;14.85;100.00;90275.31;5052554;28;20033;-68
2023/06/17 00:45:10;;;;;;;0.90;0.90;;;;;;;14.71;100.00;90267.75;5052252;28;20107;-68
2023/06/17 00:47:36;;;;;;;6.32;1.48;;;;;;;14.66;100.00;90260.75;5052457;28;20033;-68
2023/06/17 00:50:02;;;;;;;2.20;1.52;;;;;;;14.68;100.00;90269.22;5052095;28;20025;-68
2023/06/17 00:52:28;;;;;;;1.95;1.35;;;;;;;14.75;100.00;90265.94;5052121;28;20556;-69
2023/06/17 00:54:54;;;;;;;1.05;1.05;;;;;;;14.74;100.00;90250.22;5052137;28;20040;-68
2023/06/17 00:57:19;;;;;;;1.05;1.05;;;;;;;14.71;100.00;90251.69;5052294;28;20533;-68
2023/06/17 00:59:45;;;;;;;0.52;0.52;;;;;;;14.75;100.00;90254.44;5051932;28;20025;-68
2023/06/17 01:02:13;;;;;;;1.13;1.00;;;;;;;14.80;100.00;90260.28;5052229;28;20123;-67
2023/06/17 01:04:42;;;;;;;1.65;1.38;;;;;;;14.79;100.00;90252.59;5052000;28;20045;-66
2023/06/17 01:07:42;;;;;;;1.70;1.50;;;;;;;14.61;100.00;90258.34;5051865;28;20103;-66
2023/06/17 01:10:24;;;;;;;2.08;1.80;;;;;;;14.48;100.00;90254.22;5049563;28;20091;-66
2023/06/17 01:12:52;;;;;;;4.32;2.55;;;;;;;14.41;100.00;90261.31;5051828;28;20033;-66
2023/06/17 01:15:18;;;;;;;0.70;0.70;;;;;;;14.42;100.00;90250.25;5051575;28;20059;-67
2023/06/17 01:17:46;;;;;;;0.93;0.93;;;;;;;14.48;100.00;90258.81;5051088;28;20037;-67
2023/06/17 01:20:13;;;;;;;1.85;1.25;;;;;;;14.49;100.00;90257.69;5051515;28;20025;-67
2023/06/17 01:22:40;;;;;;;1.08;0.88;;;;;;;14.53;100.00;90256.66;5051558;28;20036;-68
2023/06/17 01:25:06;;;;;;;2.47;0.70;;;;;;;14.58;100.00;90267.09;5051612;28;20052;-68
2023/06/17 01:27:33;;;;;;;0.70;0.70;;;;;;;14.59;100.00;90260.59;5051830;28;20497;-67
2023/06/17 01:29:59;;;;;;;0.75;0.75;;;;;;;14.60;100.00;90264.84;5051473;28;20036;-67
2023/06/17 01:32:24;;;;;;;1.02;0.80;;;;;;;14.58;100.00;90253.69;5050207;28;20426;-67
2023/06/17 01:35:00;;;;;;;0.65;0.65;;;;;;;14.52;100.00;90260.47;5051387;28;20062;-67
2023/06/17 01:37:35;;;;;;;1.05;1.05;;;;;;;14.51;100.00;90258.88;5051385;28;20031;-67
2023/06/17 01:40:04;;;;;;;1.08;0.98;;;;;;;14.57;100.00;90257.50;5051261;28;20040;-67
2023/06/17 01:42:34;;;;;;;0.80;0.80;;;;;;;14.56;100.00;90255.19;5051346;28;20084;-67
2023/06/17 01:45:03;;;;;;;1.33;1.23;;;;;;;14.41;100.00;90256.72;5051230;28;20116;-68
2023/06/17 01:47:29;;;;;;;1.17;1.17;;;;;;;14.49;100.00;90255.78;5049997;28;20116;-68
2023/06/17 01:49:58;;;;;;;0.90;0.90;;;;;;;14.52;100.00;90249.75;5051204;28;20053;-68
2023/06/17 01:52:24;;;;;;;0.80;0.80;;;;;;;14.52;100.00;90260.47;5051271;28;20032;-67
2023/06/17 01:54:49;;;;;;;1.00;1.00;;;;;;;14.50;100.00;90251.97;5051169;28;20021;-67
2023/06/17 01:57:14;;;;;;;0.98;0.98;;;;;;;14.54;100.00;90252.84;5051085;28;20043;-67
2023/06/17 01:59:40;;;;;;;0.65;0.65;;;;;;;14.53;100.00;90253.22;5051257;28;20025;-68
2023/06/17 02:02:05;;;;;;;0.93;0.93;;;;;;;14.46;100.00;90248.44;5170486;22;20056;-68
2023/06/17 02:04:31;;;;;;;0.90;0.90;;;;;;;14.46;100.00;90256.47;5031234;28;20091;-68
2023/06/17 02:06:56;;;;;;;0.60;0.60;;;;;;;14.55;100.00;90254.41;5031182;28;20026;-68
2023/06/17 02:09:22;;;;;;;0.68;0.68;;;;;;;14.62;100.00;90253.78;5031438;28;20545;-68
2023/06/17 02:11:47;;;;;;;0.90;0.90;;;;;;;14.63;100.00;90256.09;5031098;28;20041;-68
2023/06/17 02:14:13;;;;;;;0.60;0.60;;;;;;;14.54;100.00;90258.22;5031393;28;20037;-68
2023/06/17 02:16:42;;;;;;;0.85;0.85;;;;;;;14.51;100.00;90253.53;5031124;28;20082;-67
2023/06/17 02:19:08;;;;;;;1.00;1.00;;;;;;;14.51;100.00;90247.41;5030963;28;20109;-67
2023/06/17 02:21:33;;;;;;;1.08;1.08;;;;;;;14.55;100.00;90249.06;5030929;28;20183;-68
2023/06/17 02:23:58;;;;;;;0.70;0.70;;;;;;;14.46;100.00;90242.31;5031039;28;20033;-67
2023/06/17 02:26:24;;;;;;;1.23;0.98;;;;;;;14.41;100.00;90247.94;5031023;28;20030;-67
2023/06/17 02:28:49;;;;;;;0.60;0.60;;;;;;;14.38;100.00;90255.53;5034117;28;20112;-67
2023/06/17 02:31:15;;;;;;;0.60;0.60;;;;;;;14.34;100.00;90251.19;5034803;28;20022;-68
2023/06/17 02:33:40;;;;;;;0.95;0.93;;;;;;;14.36;100.00;90246.31;5034915;28;20025;-69
2023/06/17 02:36:06;;;;;;;0.90;0.90;;;;;;;14.36;100.00;90244.41;5034795;28;20415;-66
2023/06/17 02:38:32;;;;;;;0.60;0.60;;;;;;;14.38;100.00;90246.72;5034724;28;20077;-67
2023/06/17 02:40:58;;;;;;;0.60;0.60;;;;;;;14.37;100.00;90248.63;5034964;28;20029;-66
2023/06/17 02:43:24;;;;;;;0.68;0.68;;;;;;;14.44;100.00;90256.06;5034684;28;20037;-66
2023/06/17 02:45:49;;;;;;;0.80;0.80;;;;;;;14.47;100.00;90255.34;5034872;28;20033;-68
2023/06/17 02:48:14;;;;;;;0.60;0.60;;;;;;;14.53;100.00;90248.63;5034582;28;20411;-68
2023/06/17 02:50:40;;;;;;;0.73;0.73;;;;;;;14.66;100.00;90250.03;5034508;28;20148;-68
2023/06/17 02:53:07;;;;;;;0.68;0.68;;;;;;;14.70;100.00;90257.41;5034485;28;20029;-67
2023/06/17 02:55:33;;;;;;;0.70;0.70;;;;;;;14.73;100.00;90270.84;5034512;28;20025;-68
2023/06/17 02:57:58;;;;;;;1.13;1.13;;;;;;;14.63;100.00;90269.47;5034437;28;20045;-68
2023/06/17 03:00:23;;;;;;;0.70;0.70;;;;;;;14.56;100.00;90271.25;5034330;28;20026;-68
2023/06/17 03:02:49;;;;;;;0.70;0.70;;;;;;;14.58;100.00;90277.03;5034112;28;20114;-66
2023/06/17 03:05:16;;;;;;;1.02;0.98;;;;;;;14.55;100.00;90278.50;5033376;28;20120;-67
2023/06/17 03:07:42;;;;;;;1.40;1.08;;;;;;;14.56;100.00;90282.72;5034269;28;20033;-65
2023/06/17 03:10:08;;;;;;;0.80;0.80;;;;;;;14.54;100.00;90284.97;5034195;28;20034;-66
2023/06/17 03:12:34;;;;;;;0.93;0.93;;;;;;;14.48;100.00;90286.34;5034046;28;20047;-66
2023/06/17 03:15:00;;;;;;;1.15;1.05;;;;;;;14.49;100.00;90297.81;5034047;28;20041;-65
2023/06/17 03:17:27;;;;;;;1.40;1.30;;;;;;;14.42;100.00;90295.75;5034211;28;20029;-66
2023/06/17 03:19:53;;;;;;;0.82;0.82;;;;;;;14.46;100.00;90299.31;5034164;28;20061;-65
2023/06/17 03:22:18;;;;;;;0.70;0.70;;;;;;;14.38;100.00;90298.34;5033831;28;20494;-66
2023/06/17 03:24:44;;;;;;;0.80;0.80;;;;;;;14.35;100.00;90295.56;5033863;28;20045;-66
2023/06/17 03:27:10;;;;;;;0.60;0.60;;;;;;;14.36;100.00;90303.25;5034101;28;20029;-66
2023/06/17 03:29:35;;;;;;;2.60;0.70;;;;;;;14.38;100.00;90294.88;5033750;28;20487;-66
2023/06/17 03:32:01;;;;;;;3.78;1.63;;;;;;;14.39;100.00;90291.88;5033687;28;20107;-66
2023/06/17 03:34:26;;;;;;;0.60;0.60;;;;;;;14.45;100.00;90297.75;5033736;28;20040;-66
2023/06/17 03:36:52;;;;;;;0.88;0.88;;;;;;;14.33;100.00;90300.47;5033711;28;20091;-66
2023/06/17 03:39:18;;;;;;;0.50;0.50;;;;;;;14.29;100.00;90307.66;5032668;28;20040;-67
2023/06/17 03:41:43;;;;;;;0.73;0.70;;;;;;;14.30;100.00;90307.31;5033482;28;20033;-67
2023/06/17 03:44:09;;;;;;;0.60;0.60;;;;;;;14.25;100.00;90314.81;5033568;28;20029;-66
2023/06/17 03:46:34;;;;;;;0.60;0.60;;;;;;;14.23;100.00;90319.75;5033464;28;20553;-66
2023/06/17 03:49:00;;;;;;;0.70;0.70;;;;;;;14.18;100.00;90323.44;5033450;28;20029;-66
2023/06/17 03:51:25;;;;;;;0.95;0.95;;;;;;;14.13;100.00;90312.22;5033221;28;20388;-66
2023/06/17 03:53:51;;;;;;;1.20;1.00;;;;;;;14.19;100.00;90316.19;5033267;28;20029;-66
2023/06/17 03:56:16;;;;;;;0.80;0.80;;;;;;;14.18;100.00;90311.97;5033261;28;20029;-66
2023/06/17 03:58:42;;;;;;;1.05;1.05;;;;;;;14.16;100.00;90306.97;5033168;28;20124;-66
2023/06/17 04:01:07;;;;;;;0.70;0.70;;;;;;;14.20;100.00;90307.84;5032901;28;20029;-66
2023/06/17 04:03:34;;;;;;;1.85;1.75;;;;;;;14.12;100.00;90310.69;5033192;28;20049;-66
2023/06/17 04:06:01;;;;;;;1.02;1.02;;;;;;;14.07;100.00;90317.84;5033085;28;20079;-66
2023/06/17 04:08:27;;;;;;;0.88;0.88;;;;;;;14.10;100.00;90316.38;5033137;28;20112;-66
2023/06/17 04:10:52;;;;;;;0.75;0.75;;;;;;;14.11;100.00;90319.81;5032967;28;20041;-66
2023/06/17 04:13:18;;;;;;;0.60;0.60;;;;;;;14.06;100.00;90328.88;5033060;28;20033;-67
2023/06/17 04:15:46;;;;;;;0.77;0.77;;;;;;;14.08;100.00;90319.38;5033013;28;20115;-66
2023/06/17 04:18:12;;;;;;;1.25;1.00;;;;;;;14.09;100.00;90330.88;5032883;28;20030;-66
2023/06/17 04:20:38;;;;;;;0.90;0.90;;;;;;;14.04;100.00;90318.53;5032779;28;20091;-66
2023/06/17 04:23:04;;;;;;;0.80;0.80;;;;;;;14.03;100.00;90324.19;5032859;28;20029;-65
2023/06/17 04:25:32;;;;;;;1.13;1.13;;;;;;;13.97;100.00;90323.69;5032804;28;20032;-66
2023/06/17 04:27:58;;;;;;;1.75;1.25;;;;;;;13.97;100.00;90321.00;5032966;28;20036;-66
2023/06/17 04:30:25;;;;;;;1.20;1.05;;;;;;;14.03;100.00;90319.63;5032899;28;20038;-66
2023/06/17 04:32:51;;;;;;;0.95;0.95;;;;;;;14.00;100.00;90331.00;5032950;28;20034;-66
2023/06/17 04:35:18;;;;;;;0.93;0.80;;;;;;;13.97;100.00;90323.69;5032852;28;20061;-66
2023/06/17 04:37:44;;;;;;;1.35;1.23;;;;;;;13.93;100.00;90325.50;5032490;28;20029;-67
2023/06/17 04:40:12;;;;;;;1.08;1.08;;;;;;;13.77;100.00;90324.69;5032407;28;20117;-67
2023/06/17 04:42:40;;;;;;;1.50;1.40;;;;;;;13.74;100.00;90336.06;5032398;28;20053;-66
2023/06/17 04:45:08;;;;;;;4.22;2.05;;;;;;;13.73;100.00;90334.53;5032434;28;20076;-66
2023/06/17 04:47:33;;;;;;;1.88;1.77;;;;;;;13.75;100.00;90334.97;5032310;28;20042;-66
2023/06/17 04:49:59;;;;;;;0.85;0.82;;;;;;;13.73;100.00;90334.53;5032215;28;20029;-66
2023/06/17 04:52:24;;;;;;;1.20;1.00;;;;;;;13.66;100.00;90337.78;5032234;28;20094;-66
2023/06/17 04:54:50;;;;;;;1.40;1.00;;;;;;;13.68;100.00;90335.53;5032272;28;20474;-66
2023/06/17 04:57:16;;;;;;;1.52;1.42;;;;;;;13.79;100.00;90343.84;5032116;28;20499;-66
2023/06/17 04:59:42;;;;;;;1.52;1.42;;;;;;;13.94;100.00;90347.66;5032066;28;20036;-66
2023/06/17 05:02:08;;;;;;;1.17;1.15;;;;;;;13.91;100.00;90343.78;5031842;28;20049;-66
2023/06/17 05:04:33;;;;;;;0.85;0.85;;;;;;;13.94;100.00;90347.66;5031999;28;20055;-66
2023/06/17 05:06:59;;;;;;;1.63;0.90;;;;;;;13.99;100.00;90348.19;5031970;28;20479;-67
2023/06/17 05:09:25;;;;;;;1.27;1.02;;;;;;;13.98;100.00;90349.31;5031835;28;20100;-66
2023/06/17 05:11:50;;;;;;;1.10;1.10;;;;;;;14.08;100.00;90351.50;5031751;28;20108;-67
2023/06/17 05:14:16;;;;;;;2.03;1.00;;;;;;;14.21;100.00;90351.41;5031821;28;20109;-67
2023/06/17 05:16:41;;;;;;;0.77;0.77;;;;;;;14.36;100.00;90350.66;5031724;28;20041;-67
2023/06/17 05:19:06;;;;;;;1.05;1.02;;;;;;;14.38;100.00;90343.06;5031689;28;20087;-66
2023/06/17 05:21:32;;;;;;;0.88;0.88;;;;;;;14.27;100.00;90334.75;5031668;28;20041;-67
2023/06/17 05:23:57;;;;;;;1.15;1.15;;;;;;;14.16;100.00;90344.41;5031972;28;20095;-67
2023/06/17 05:26:23;;;;;;;2.00;1.90;;;;;;;14.24;100.00;90340.81;5031643;28;20033;-66
2023/06/17 05:28:48;;;;;;;0.80;0.80;;;;;;;14.35;100.00;90338.38;5031555;28;20112;-66
2023/06/17 05:31:13;;;;;;;1.85;1.15;;;;;;;14.29;100.00;90343.22;5025913;28;20060;-67
2023/06/17 05:33:39;;;;;;;0.75;0.75;;;;;;;14.31;100.00;90345.53;5021346;28;20075;-67
2023/06/17 05:36:05;;;;;;;0.70;0.70;;;;;;;14.29;100.00;90337.09;5019865;28;20385;-67
2023/06/17 05:38:30;;;;;;;0.65;0.65;;;;;;;14.17;100.00;90331.81;5021830;28;20398;-67
2023/06/17 05:40:56;;;;;;;1.30;0.93;;;;;;;14.15;100.00;90342.84;5020663;28;20575;-67
2023/06/17 05:43:26;;;;;;;0.95;0.95;;;;;;;14.27;100.00;90347.34;5020218;28;20034;-66
2023/06/17 05:45:51;;;;;;;1.20;0.90;;;;;;;14.53;100.00;90341.53;5021313;28;20033;-67
2023/06/17 05:48:16;;;;;;;1.58;1.48;;;;;;;14.50;100.00;90347.56;5019375;28;20018;-67
2023/06/17 05:50:42;;;;;;;1.45;1.35;;;;;;;14.38;100.00;90359.09;5020053;28;20026;-68
2023/06/17 05:53:07;;;;;;;1.08;1.08;;;;;;;14.45;100.00;90358.53;5021628;28;20033;-68
2023/06/17 05:55:33;;;;;;;1.10;1.10;;;;;;;14.48;100.00;90361.28;5019637;28;20053;-69
2023/06/17 05:57:58;;;;;;;1.42;0.90;;;;;;;14.51;100.00;90363.25;5021468;28;20045;-67
2023/06/17 06:00:23;;;;;;;1.05;1.05;;;;;;;14.39;100.00;90369.47;5020279;28;20108;-68
2023/06/17 06:02:49;;;;;;;1.00;1.00;;;;;;;14.29;100.00;90374.53;5019338;28;20037;-68
2023/06/17 06:05:15;;;;;;;1.23;1.13;;;;;;;14.29;100.00;90361.94;5021672;28;20021;-68
2023/06/17 06:07:46;;;;;;;1.80;1.70;;;;;;;14.36;100.00;90375.50;5020108;28;20031;-68
2023/06/17 06:10:12;;;;;;;1.73;1.63;;;;;;;14.34;100.00;90368.94;5019733;28;20096;-67
2023/06/17 06:12:38;;;;;;;1.23;1.13;;;;;;;14.33;100.00;90367.38;5021496;28;20104;-68
2023/06/17 06:15:04;;;;;;;4.35;1.80;;;;;;;14.38;100.00;90362.56;5017273;28;20030;-68
2023/06/17 06:17:30;;;;;;;1.67;1.23;;;;;;;14.33;100.00;90368.16;5011000;28;20029;-67
2023/06/17 06:19:56;;;;;;;1.33;1.25;;;;;;;14.45;100.00;90370.00;5010752;28;20032;-68
2023/06/17 06:22:21;;;;;;;2.83;1.60;;;;;;;14.44;100.00;90370.34;5009223;28;20030;-68
2023/06/17 06:24:47;;;;;;;2.78;1.00;;;;;;;14.54;100.00;90367.16;5010542;28;20024;-69
2023/06/17 06:27:12;;;;;;;2.30;1.67;;;;;;;14.43;100.00;90363.41;5010534;28;20034;-68
2023/06/17 06:29:38;;;;;;;2.58;1.65;;;;;;;14.39;100.00;90371.38;5010600;28;20029;-66
2023/06/17 06:32:03;;;;;;;2.28;1.75;;;;;;;14.46;100.00;90374.22;5010458;28;20038;-67
2023/06/17 06:34:29;;;;;;;2.97;2.47;;;;;;;14.45;100.00;90377.25;5017093;28;20037;-69
2023/06/17 06:36:58;;;;;;;1.92;1.77;;;;;;;14.38;100.00;90362.56;5010437;28;20022;-67
2023/06/17 06:39:24;;;;;;;1.98;1.63;;;;;;;14.36;100.00;90366.72;5015267;28;20033;-67
2023/06/17 06:41:50;;;;;;;1.95;1.67;;;;;;;14.37;100.00;90373.63;5019899;28;20036;-67
2023/06/17 06:44:16;;;;;;;1.30;1.30;;;;;;;14.60;100.00;90363.88;5020054;28;20018;-68
2023/06/17 06:46:41;;;;;;;1.55;1.45;;;;;;;14.77;100.00;90364.63;5021342;28;20054;-69
2023/06/17 06:49:07;;;;;;;6.93;2.72;;;;;;;14.74;100.00;90368.78;5016527;28;20057;-67
2023/06/17 06:51:32;;;;;;;1.65;1.35;;;;;;;14.85;100.00;90366.38;5017036;28;20104;-68
2023/06/17 06:53:58;;;;;;;0.90;0.90;;;;;;;15.12;100.00;90370.03;5016064;28;20092;-69
2023/06/17 06:56:24;;;;;;;0.88;0.88;;;;;;;15.20;100.00;90364.50;5027046;28;20117;-71
2023/06/17 06:58:49;;;;;;;1.00;0.90;;;;;;;14.92;100.00;90361.16;5022839;28;20026;-69
2023/06/17 07:01:15;;;;;;;3.10;1.33;;;;;;;14.90;100.00;90366.09;5015176;28;20036;-68
2023/06/17 07:03:41;;;;;;;1.35;0.77;;;;;;;14.97;100.00;90371.59;5018555;28;20683;-69
2023/06/17 07:06:07;;;;;;;0.90;0.90;;;;;;;14.76;100.00;90363.09;5017862;28;20036;-74
2023/06/17 07:08:33;;;;;;;1.50;0.98;;;;;;;14.65;100.00;90366.28;5027131;28;20116;-72
2023/06/17 07:10:58;;;;;;;2.10;1.10;;;;;;;14.60;100.00;90369.22;5021058;28;20049;-70
2023/06/17 07:13:23;;;;;;;0.80;0.80;;;;;;;14.51;100.00;90376.63;5012719;28;20045;-69
2023/06/17 07:15:49;;;;;;;1.08;1.08;;;;;;;14.48;100.00;90371.97;5012458;28;20030;-70
2023/06/17 07:18:14;;;;;;;1.50;1.38;;;;;;;14.59;100.00;90381.06;5011815;28;20032;-72
2023/06/17 07:20:40;;;;;;;0.65;0.65;;;;;;;14.64;100.00;90370.09;5012194;28;20041;-71
2023/06/17 07:23:05;;;;;;;2.92;1.58;;;;;;;14.57;100.00;90380.63;5013041;28;20025;-71
2023/06/17 07:25:30;;;;;;;0.60;0.60;;;;;;;14.63;100.00;90381.91;5013699;28;20132;-66
2023/06/17 07:28:02;;;;;;;1.85;1.00;;;;;;;14.52;100.00;90380.13;5013978;28;20072;-68
2023/06/17 07:30:28;;;;;;;1.20;1.20;;;;;;;14.48;100.00;90389.94;5013733;28;20111;-67
2023/06/17 07:32:53;;;;;;;3.40;1.95;;;;;;;14.19;100.00;90375.03;5013674;28;20496;-66
2023/06/17 07:35:19;;;;;;;1.23;1.20;;;;;;;14.33;100.00;90386.09;5016520;28;20416;-68
2023/06/17 07:37:44;;;;;;;1.25;1.20;;;;;;;14.29;100.00;90385.25;5013658;28;20038;-68
2023/06/17 07:40:11;;;;;;;5.57;1.38;;;;;;;14.27;100.00;90392.84;5013329;28;20033;-68
2023/06/17 07:42:42;;;;;;;1.23;1.17;;;;;;;14.19;100.00;90391.09;5013352;28;20421;-68
2023/06/17 07:45:11;;;;;;;1.58;1.48;;;;;;;14.18;100.00;90389.53;5013462;28;20042;-72
2023/06/17 07:47:37;;;;;;;1.23;1.23;;;;;;;14.27;100.00;90390.16;5018890;28;20048;-66
2023/06/17 07:50:04;;;;;;;2.13;1.70;;;;;;;14.35;100.00;90394.56;5032366;28;20480;-65
2023/06/17 07:52:31;;;;;;;1.52;1.45;;;;;;;14.36;100.00;90402.28;5033125;28;20514;-66
2023/06/17 07:54:57;;;;;;;0.63;0.63;;;;;;;14.38;100.00;90399.25;5020603;28;20034;-66
2023/06/17 07:57:22;;;;;;;1.65;1.45;;;;;;;14.45;100.00;90388.75;5025192;28;20041;-66
2023/06/17 07:59:48;;;;;;;1.45;1.35;;;;;;;14.42;100.00;90399.31;5032922;28;20036;-68
2023/06/17 08:02:13;;;;;;;2.95;1.15;;;;;;;14.38;100.00;90399.25;5032388;28;20059;-68
2023/06/17 08:04:39;;;;;;;0.88;0.88;;;;;;;14.39;100.00;90398.13;5047364;28;20057;-66
2023/06/17 08:07:04;;;;;;;0.70;0.70;;;;;;;14.47;100.00;90402.56;5032789;28;20033;-65
2023/06/17 08:09:30;;;;;;;1.73;1.25;;;;;;;14.56;100.00;90400.50;5032769;28;20029;-65
2023/06/17 08:11:55;;;;;;;7.28;1.33;;;;;;;14.65;100.00;90400.31;5032538;28;20075;-68
2023/06/17 08:14:21;;;;;;;1.13;1.13;;;;;;;14.88;100.00;90400.50;5032656;28;20041;-65
2023/06/17 08:16:46;;;;;;;1.50;1.40;;;;;;;15.07;100.00;90402.44;5032317;28;20088;-65
2023/06/17 08:19:12;;;;;;;2.03;1.83;;;;;;;15.17;100.00;90407.28;5031750;28;20033;-67
2023/06/17 08:21:38;;;;;;;1.80;1.67;;;;;;;15.30;100.00;90395.31;5047733;28;20522;-65
2023/06/17 08:24:24;;;;;;;6.45;3.15;;;;;;;15.48;100.00;90398.38;5032364;28;20110;-65
2023/06/17 08:26:51;;;;;;;2.45;2.35;;;;;;;15.47;100.00;90405.66;5026035;28;20045;-65
2023/06/17 08:29:17;;;;;;;3.58;1.90;;;;;;;15.48;100.00;90406.44;5012511;28;20046;-66
2023/06/17 08:31:47;;;;;;;3.35;2.50;;;;;;;15.41;100.00;90404.34;5012390;28;20038;-64
2023/06/17 08:34:13;;;;;;;1.25;1.20;;;;;;;15.36;100.00;90406.53;5011590;28;20171;-63
2023/06/17 08:36:46;;;;;;;1.30;1.30;;;;;;;15.52;100.00;90410.72;5012172;28;20124;-65
2023/06/17 08:39:12;;;;;;;1.65;1.55;;;;;;;15.57;100.00;90405.09;5011609;28;20041;-64
2023/06/17 08:41:39;;;;;;;0.90;0.90;;;;;;;15.64;100.00;90409.09;5027068;28;20045;-64
2023/06/17 08:44:06;;;;;;;3.05;1.70;;;;;;;15.84;100.00;90416.78;5012262;28;20499;-64
2023/06/17 08:46:33;;;;;;;1.63;1.52;;;;;;;15.80;100.00;90415.19;5012222;28;20061;-63
2023/06/17 08:48:59;;;;;;;1.83;1.73;;;;;;;15.74;100.00;90414.66;5011448;28;20049;-64
2023/06/17 08:51:25;;;;;;;1.38;1.27;;;;;;;15.86;100.00;90411.84;5011914;28;20033;-63
2023/06/17 08:53:51;;;;;;;1.58;1.48;;;;;;;15.88;100.00;90412.25;5011970;28;20087;-63
2023/06/17 08:56:17;;;;;;;1.33;1.23;;;;;;;15.91;100.00;90412.69;5012252;28;20116;-65
2023/06/17 08:58:44;;;;;;;2.50;2.40;;;;;;;15.98;100.00;90410.16;5011843;28;20049;-64
2023/06/17 09:01:10;;;;;;;2.45;1.95;;;;;;;16.00;100.00;90408.69;5012052;28;20045;-65
2023/06/17 09:03:39;;;;;;;9.18;1.58;;;;;;;15.91;100.00;90404.66;5011038;28;20129;-64
2023/06/17 09:06:17;;;;;;;1.67;1.58;;;;;;;16.03;100.00;90404.50;5011404;28;20499;-62
2023/06/17 09:08:43;;;;;;;1.15;1.15;;;;;;;16.28;100.00;90400.41;5011826;28;20045;-63
2023/06/17 09:11:09;;;;;;;2.25;2.10;;;;;;;16.52;100.00;90399.28;5011812;28;20424;-64
2023/06/17 09:13:36;;;;;;;1.60;1.30;;;;;;;16.75;100.00;90405.47;5011699;28;20734;-63
2023/06/17 09:16:02;;;;;;;0.90;0.90;;;;;;;16.87;100.00;90401.81;5011634;28;20045;-62
2023/06/17 09:18:31;;;;;;;2.47;1.30;;;;;;;17.35;100.00;90408.31;5011182;28;20116;-64
2023/06/17 09:20:57;;;;;;;2.10;2.00;;;;;;;17.26;100.00;90404.34;5026572;28;20046;-65
2023/06/17 09:23:25;;;;;;;2.80;1.85;;;;;;;17.60;100.00;90402.53;5011603;28;20111;-65
2023/06/17 09:26:09;;;;;;;1.70;1.60;;;;;;;17.95;100.00;90397.63;5011594;28;20115;-65
2023/06/17 09:28:34;;;;;;;1.10;1.10;;;;;;;17.80;100.00;90395.13;5009775;28;20022;-60
2023/06/17 09:31:04;;;;;;;0.82;0.82;;;;;;;17.93;100.00;90394.53;5010547;28;20434;-58
2023/06/17 09:33:29;;;;;;;2.70;2.20;;;;;;;17.95;100.00;90402.25;5009322;28;20034;-62
2023/06/17 09:36:04;;;;;;;1.08;1.00;;;;;;;17.72;100.00;90405.03;5011222;28;20026;-62
2023/06/17 09:38:31;;;;;;;0.90;0.90;;;;;;;17.27;100.00;90405.91;5010720;28;20400;-62
2023/06/17 09:40:58;;;;;;;1.00;0.95;;;;;;;17.04;100.00;90409.41;5010933;28;20091;-63
2023/06/17 09:43:28;;;;;;;1.13;1.00;;;;;;;17.26;100.00;90405.13;5011625;28;20037;-62
2023/06/17 09:45:59;;;;;;;1.10;0.85;;;;;;;17.48;100.00;90413.50;5011486;28;20109;-62
2023/06/17 09:48:30;;;;;;;0.90;0.90;;;;;;;17.73;100.00;90413.88;5010510;28;20026;-62
2023/06/17 09:50:56;;;;;;;0.60;0.60;;;;;;;17.65;100.00;90411.03;5011086;28;20033;-62
2023/06/17 09:53:27;;;;;;;0.98;0.90;;;;;;;17.53;100.00;90408.59;5011155;28;20073;-62
2023/06/17 09:55:59;;;;;;;1.00;1.00;;;;;;;17.52;100.00;90408.97;5011386;28;20034;-63
2023/06/17 09:58:34;;;;;;;1.30;1.20;;;;;;;17.70;100.00;90409.22;5011492;28;20034;-63
2023/06/17 10:01:05;;;;;;;2.50;1.77;;;;;;;18.02;100.00;90415.03;5011317;28;20456;-63
2023/06/17 10:03:32;;;;;;;3.92;3.47;;;;;;;18.20;100.00;90416.00;5010141;28;20065;-63
2023/06/17 10:06:03;;;;;;;1.13;1.02;;;;;;;18.10;100.00;90385.13;5011196;28;20080;-64
2023/06/17 10:08:30;;;;;;;1.55;1.45;;;;;;;18.40;100.00;90411.22;5011129;28;20033;-63
2023/06/17 10:10:59;;;;;;;1.95;1.85;;;;;;;18.59;100.00;90402.94;5011213;28;20076;-64
2023/06/17 10:13:26;;;;;;;2.50;2.25;;;;;;;18.68;100.00;90410.78;5010998;28;20103;-63
2023/06/17 10:15:54;;;;;;;4.20;2.22;;;;;;;18.54;100.00;90416.75;5011135;28;20025;-63
2023/06/17 10:18:23;;;;;;;1.75;1.65;;;;;;;18.53;100.00;90415.22;5010380;28;20034;-62
2023/06/17 10:20:50;;;;;;;1.17;1.17;;;;;;;18.55;100.00;90412.94;5010921;28;20064;-62
2023/06/17 10:23:20;;;;;;;2.25;1.73;;;;;;;18.57;100.00;90410.63;5010910;28;20065;-63
2023/06/17 10:25:46;;;;;;;2.08;1.88;;;;;;;18.45;100.00;90416.28;5011209;28;20022;-62
2023/06/17 10:28:14;;;;;;;3.03;2.72;;;;;;;18.50;100.00;90415.97;5010941;28;20052;-63
2023/06/17 10:30:44;;;;;;;1.92;1.83;;;;;;;18.48;100.00;90421.72;5010781;28;20492;-62
2023/06/17 10:33:09;;;;;;;2.55;2.35;;;;;;;18.43;100.00;90407.78;5010484;28;20037;-63
2023/06/17 10:35:38;;;;;;;3.95;3.40;;;;;;;18.40;100.00;90422.00;5010764;28;20538;-61
2023/06/17 10:38:03;;;;;;;7.72;2.85;;;;;;;18.19;100.00;90423.31;5010760;28;20080;-62
2023/06/17 10:40:31;;;;;;;1.95;1.80;;;;;;;18.44;100.00;90420.88;5010758;28;20054;-64
2023/06/17 10:43:02;;;;;;;1.42;1.23;;;;;;;18.44;100.00;90414.72;5010924;28;20045;-65
2023/06/17 10:45:29;;;;;;;2.15;2.00;;;;;;;18.44;100.00;90415.50;5011003;28;20409;-64
2023/06/17 10:48:17;;;;;;;4.00;2.67;;;;;;;18.50;100.00;90415.97;5010288;28;20030;-64
2023/06/17 10:50:43;;;;;;;8.80;2.85;;;;;;;18.57;100.00;90421.41;5014594;28;20499;-62
2023/06/17 10:53:13;;;;;;;2.13;1.92;;;;;;;18.54;100.00;90419.47;5014534;28;20423;-63
2023/06/17 10:55:39;;;;;;;1.58;1.48;;;;;;;18.63;100.00;90419.97;5014609;28;20030;-62
2023/06/17 10:58:04;;;;;;;1.10;1.10;;;;;;;18.47;100.00;90417.47;5014267;28;20026;-63
2023/06/17 11:00:30;;;;;;;3.95;2.08;;;;;;;18.40;100.00;90419.31;5011435;28;20104;-60
2023/06/17 11:02:55;;;;;;;1.60;0.93;;;;;;;18.66;100.00;90416.53;5013166;28;20523;-61
2023/06/17 11:05:21;;;;;;;2.08;1.85;;;;;;;18.53;100.00;90426.75;5013999;28;20026;-62
2023/06/17 11:07:46;;;;;;;1.80;1.70;;;;;;;18.63;100.00;90425.38;5014108;28;20117;-65
2023/06/17 11:10:12;;;;;;;2.00;1.90;;;;;;;18.66;100.00;90424.63;5012473;28;20058;-63
2023/06/17 11:12:39;;;;;;;4.80;1.80;;;;;;;18.71;100.00;90437.75;5011141;28;20034;-57
2023/06/17 11:15:06;;;;;;;1.10;1.10;;;;;;;18.65;100.00;90433.84;5014246;28;20096;-62
2023/06/17 11:17:32;;;;;;;3.05;2.55;;;;;;;18.71;100.00;90421.59;5011671;28;20467;-60
2023/06/17 11:19:57;;;;;;;1.77;1.63;;;;;;;18.83;100.00;90428.63;5012006;28;20057;-56
2023/06/17 11:22:23;;;;;;;2.35;2.15;;;;;;;19.10;100.00;90426.59;5013657;28;20056;-59